Relevés horaires Chievres (Belgique)


Relevés horaires à Chievres - Dimanche 24 Avr. 2022
Heure UTC1 Température [°C] Vent [km/h] Hum. [%] Pres.4 [hPa] Visi. [Km] Nébu. [octa] Préc.5 [mm] Cond.
2m. Res. Ros. Dir.2 Vit. Moy. Raf.3
23:00 10.5 9.7 5.9 N 7.4 -- 13.0 73 1008.7(1.5/3h) 20 -- -- --
22:00 10.6 9.8 5.6 N 7.4 -- 11.1 71 1008.3(2.2/3h) 20 -- -- --
21:00 11.1 10.4 4.7 N 7.4 -- 16.7 65 1007.7(2.4/3h) 20 -- -- --
20:00 12.4 11.6 3.9 N 9.3 -- 13.0 56 1007.1(2.3/3h) 20 -- -- --
19:00 13.3 12.7 4.4 N 9.3 -- 16.7 55 1006.1(1.5/3h) 20 -- -- --
18:00 15.6 15.2 4.6 N 11.1 -- 20.4 48 1005.2(1.0/3h) 20 -- -- --
17:00 16.6 16.6 3.3 N 9.3 -- 14.8 41 1004.7(0.9/3h) 20 -- -- --
16:00 16.6 16.6 4.0 N 9.3 -- 16.7 43 1004.3(0.8/3h) 20 -- -- --
15:00 17.3 17.2 3.7 N 11.1 -- 20.4 40 1004(0.7/3h) 20 -- -- --
14:00 17.0 17.0 3.8 NE 9.3 -- 18.5 41 1003.7(0.4/3h) 20 -- -- --
13:00 17.2 17.2 5.8 NE 9.3 -- 20.4 47 1003.5(0.5/3h) 20 -- -- --
12:00 16.9 16.8 5.7 NE 11.1 -- 18.5 48 1003.2(0.5/3h) 20 -- -- --
11:00 15.6 15.2 6.7 NNE 11.1 -- 16.7 55 1003.2(0.7/3h) 19 -- -- --
10:00 14.2 13.5 6.1 N 11.1 -- 16.7 58 1003(0.9/3h) 20 -- -- --
09:00 13.4 12.8 5.7 NNE 9.3 -- 14.8 60 1002.7(0.8/3h) 20 -- -- --
08:00 12.4 11.6 4.9 NE 9.3 -- 14.8 60 1002.5(1.0/3h) 20 -- -- --
07:00 11.3 10.7 4.9 NE 7.4 -- 13.0 65 1002.2(1.2/3h) 20 -- -- --
06:00 10.2 9.4 4.9 NE 7.4 -- 9.3 70 1002(1.2/3h) 20 -- -- --
05:00 8.6 8.6 4.2 NNE 3.7 -- 7.4 74 1001.5(0.8/3h) 20 -- -- --
04:00 8.2 8.2 3.8 NE 3.7 -- 7.4 74 1001(0.1/3h) 20 -- -- --
03:00 8.1 8.1 5.1 N 3.7 -- 9.3 81 1000.7(-0.2/3h) 15 -- -- --
02:00 9.1 8.6 5.8 NNE 5.6 -- 9.3 80 1000.7(-0.6/3h) 14 -- -- --
01:00 10.3 9.5 6.3 NNE 7.4 -- 9.3 76 1000.7(-0.2/3h) 14 -- -- --
00:00 10.1 10.1 6.9 N 3.7 -- 14.8 80 1000.8(0.3/3h) 12 -- -- --

1 Coordinated Universal Time. Actuellement il est 14:00 locale et 13:00 UTC.

2 Le vent souffle depuis la direction indiquée vers la direction oposée.

3 Les rafales max. sont disponible 40 min après l'heure du relevé.

4 Pour les stations d'altitude (plus de 600m) le géopotentiel du niveau le plus proche de la pression obligatoire est indiqué.

5 Les stations disposant d'un diffuseur peuvent indiquer "trace". Cela signifie que des précipitations ont touchés le sol mais que la quantité est inférieure à 0.1 mm.

Récapitulatif de la journée
Température [°C] Vent [km/h] Ensoleillement4 [h] Precipitations totale5 [mm] Pression [Hpa]
Min1 Max.2 Moy.3 Max. Min Max.
7.9 18.5 0 20.4 0 h 0 min 0 1000.7 1008.7

1 Température minimale relevée entre 18:00 UTC la veille et 18:00 UTC le jour donné.

2 Température maximale relevée entre 06:00 UTC le jour donné et 06:00 UTC le lendemain.

3 Vent moyen de la journée basé sur les relevés horaires.

4 Ensoleillement en heures relevé entre 06:00 UTC la veille et 06:00 UTC le jour donné.

5 Précipitations totales tombées entre 06:00 UTC la jour donné et 06:00 UTC le lendemain.

Graphiques horaires